createdAt,value
2023-04-01T00:01:00.324Z,98151.66
2023-04-01T00:03:28.464Z,98151.63
2023-04-01T00:05:56.810Z,98144.00
2023-04-01T00:08:23.947Z,98142.25
2023-04-01T00:10:51.287Z,98143.09
2023-04-01T00:13:18.165Z,98132.81
2023-04-01T00:15:45.111Z,98131.97
2023-04-01T00:18:12.394Z,98125.16
2023-04-01T00:20:38.964Z,98128.50
2023-04-01T00:23:06.227Z,98131.03
2023-04-01T00:25:33.028Z,98132.72
2023-04-01T00:27:59.904Z,98140.38
2023-04-01T00:30:26.524Z,98140.38
2023-04-01T00:32:54.095Z,98132.69
2023-04-01T00:35:21.398Z,98136.13
2023-04-01T00:37:48.433Z,98126.78
2023-04-01T00:40:23.946Z,98122.50
2023-04-01T00:42:50.592Z,98119.03
2023-04-01T00:45:34.208Z,98128.41
2023-04-01T00:48:06.895Z,98120.75
2023-04-01T00:50:36.003Z,98122.47
2023-04-01T00:53:04.139Z,98114.81
2023-04-01T00:55:35.092Z,98134.41
2023-04-01T00:58:05.197Z,98114.00
2023-04-01T01:00:32.500Z,98123.34
2023-04-01T01:02:59.213Z,98125.06
2023-04-01T01:05:58.563Z,98129.31
2023-04-01T01:08:38.598Z,98129.34
2023-04-01T01:11:09.278Z,98128.41
2023-04-01T01:13:44.597Z,98131.81
2023-04-01T01:16:19.909Z,98130.16
2023-04-01T01:18:51.657Z,98135.25
2023-04-01T01:21:36.373Z,98134.41
2023-04-01T01:24:11.901Z,98142.91
2023-04-01T01:26:47.682Z,98136.94
2023-04-01T01:29:38.965Z,98135.25
2023-04-01T01:32:17.151Z,98142.00
2023-04-01T01:35:17.521Z,98147.06
2023-04-01T01:37:46.785Z,98145.34
2023-04-01T01:40:16.428Z,98146.19
2023-04-01T01:42:49.201Z,98148.75
2023-04-01T01:45:19.827Z,98139.38
2023-04-01T01:47:47.419Z,98147.06
2023-04-01T01:50:15.331Z,98137.69
2023-04-01T01:52:41.865Z,98148.75
2023-04-01T01:55:32.629Z,98148.75
2023-04-01T01:58:03.721Z,98150.44
2023-04-01T02:00:30.911Z,98148.75
2023-04-01T02:02:59.591Z,98153.84
2023-04-01T02:05:30.021Z,98161.47
2023-04-01T02:08:01.651Z,98164.03
2023-04-01T02:10:32.324Z,98165.72
2023-04-01T02:13:07.112Z,98165.72
2023-04-01T02:15:41.649Z,98174.16
2023-04-01T02:18:08.970Z,98165.66
2023-04-01T02:20:38.025Z,98164.81
2023-04-01T02:23:05.509Z,98163.97
2023-04-01T02:25:36.473Z,98167.38
2023-04-01T02:28:06.224Z,98166.50
2023-04-01T02:30:36.096Z,98151.19
2023-04-01T02:33:04.182Z,98157.16
2023-04-01T02:35:31.237Z,98153.75
2023-04-01T02:37:59.076Z,98158.03
2023-04-01T02:40:25.657Z,98150.41
2023-04-01T02:42:52.925Z,98155.53
2023-04-01T02:45:19.639Z,98155.53
2023-04-01T02:47:46.293Z,98152.09
2023-04-01T02:50:12.976Z,98148.69
2023-04-01T02:52:39.540Z,98141.91
2023-04-01T02:55:07.353Z,98150.41
2023-04-01T02:57:34.007Z,98136.78
2023-04-01T03:00:00.614Z,98139.34
2023-04-01T03:02:27.960Z,98135.09
2023-04-01T03:04:54.583Z,98141.06
2023-04-01T03:07:21.131Z,98138.53
2023-04-01T03:09:47.753Z,98136.84
2023-04-01T03:12:14.319Z,98134.25
2023-04-01T03:14:40.876Z,98136.88
2023-04-01T03:17:07.675Z,98142.81
2023-04-01T03:19:34.301Z,98147.03
2023-04-01T03:22:00.894Z,98141.06
2023-04-01T03:24:27.449Z,98150.44
2023-04-01T03:26:54.012Z,98146.22
2023-04-01T03:29:20.822Z,98153.03
2023-04-01T03:31:47.402Z,98153.06
2023-04-01T03:34:13.922Z,98152.19
2023-04-01T03:36:40.792Z,98152.19
2023-04-01T03:39:07.389Z,98147.97
2023-04-01T03:41:37.486Z,98160.69
2023-04-01T03:44:04.197Z,98159.84
2023-04-01T03:46:30.905Z,98165.84
2023-04-01T03:48:57.485Z,98175.16
2023-04-01T03:51:24.003Z,98170.88
2023-04-01T03:53:50.826Z,98178.56
2023-04-01T03:56:17.426Z,98175.19
2023-04-01T03:58:44.013Z,98170.91
2023-04-01T04:01:22.630Z,98185.38
2023-04-01T04:03:50.762Z,98181.97
2023-04-01T04:06:19.281Z,98179.47
2023-04-01T04:08:45.877Z,98175.22
2023-04-01T04:11:12.521Z,98182.00
2023-04-01T04:13:39.202Z,98176.84
2023-04-01T04:16:06.278Z,98177.69
2023-04-01T04:18:32.854Z,98176.03
2023-04-01T04:20:59.445Z,98179.44
2023-04-01T04:23:26.129Z,98171.81
2023-04-01T04:26:01.702Z,98171.00
2023-04-01T04:28:29.017Z,98171.03
2023-04-01T04:30:55.926Z,98162.56
2023-04-01T04:33:23.819Z,98171.97
2023-04-01T04:35:50.595Z,98175.47
2023-04-01T04:38:17.953Z,98171.28
2023-04-01T04:40:44.531Z,98158.53
2023-04-01T04:43:16.345Z,98172.19
2023-04-01T04:45:43.365Z,98168.78
2023-04-01T04:48:17.241Z,98170.50
2023-04-01T04:50:43.781Z,98163.72
2023-04-01T04:53:12.085Z,98147.59
2023-04-01T04:55:38.861Z,98162.94
2023-04-01T04:58:05.386Z,98152.75
2023-04-01T05:00:31.977Z,98156.19
2023-04-01T05:02:58.617Z,98156.19
2023-04-01T05:05:25.471Z,98161.28
2023-04-01T05:07:51.985Z,98161.28
2023-04-01T05:10:18.628Z,98162.13
2023-04-01T05:12:45.411Z,98168.06
2023-04-01T05:15:12.141Z,98166.38
2023-04-01T05:17:38.932Z,98169.78
2023-04-01T05:20:06.199Z,98181.72
2023-04-01T05:22:32.768Z,98175.78
2023-04-01T05:24:59.392Z,98183.44
2023-04-01T05:27:25.979Z,98173.25
2023-04-01T05:29:52.675Z,98170.72
2023-04-01T05:32:19.220Z,98175.81
2023-04-01T05:34:45.877Z,98174.13
2023-04-01T05:37:12.404Z,98175.81
2023-04-01T05:39:39.410Z,98179.25
2023-04-01T05:42:08.963Z,98176.72
2023-04-01T05:44:36.541Z,98172.50
2023-04-01T05:47:04.969Z,98178.47
2023-04-01T05:49:31.718Z,98177.66
2023-04-01T05:51:58.439Z,98168.31
2023-04-01T05:54:25.019Z,98170.91
2023-04-01T05:56:51.640Z,98168.34
2023-04-01T05:59:18.301Z,98161.50
2023-04-01T06:01:44.933Z,98159.84
2023-04-01T06:04:16.424Z,98170.06
2023-04-01T06:06:43.494Z,98162.44
2023-04-01T06:09:22.637Z,98163.31
2023-04-01T06:12:10.887Z,98148.84
2023-04-01T06:14:58.542Z,98158.22
2023-04-01T06:17:33.970Z,98163.34
2023-04-01T06:20:15.745Z,98154.84
2023-04-01T06:23:09.464Z,98158.28
2023-04-01T06:25:57.565Z,98154.91
2023-04-01T06:28:47.357Z,98152.38
2023-04-01T06:31:39.912Z,98151.50
2023-04-01T06:34:30.471Z,98148.06
2023-04-01T06:37:11.121Z,98137.00
2023-04-01T06:39:43.476Z,98146.38
2023-04-01T06:42:55.016Z,98141.25
2023-04-01T06:45:27.368Z,98137.81
2023-04-01T06:47:59.663Z,98141.22
2023-04-01T06:50:26.470Z,98141.25
2023-04-01T06:53:18.946Z,98142.06
2023-04-01T06:55:58.480Z,98144.59
2023-04-01T06:58:46.853Z,98148.84
2023-04-01T07:01:27.783Z,98146.28
2023-04-01T07:04:00.461Z,98165.09
2023-04-01T07:06:32.654Z,98148.81
2023-04-01T07:09:06.073Z,98150.50
2023-04-01T07:11:35.573Z,98149.63
2023-04-01T07:14:30.051Z,98147.00
2023-04-01T07:17:07.447Z,98148.69
2023-04-01T07:19:43.618Z,98152.91
2023-04-01T07:22:28.298Z,98162.28
2023-04-01T07:24:55.046Z,98169.09
2023-04-01T07:27:21.578Z,98175.03
2023-04-01T07:29:48.469Z,98178.44
2023-04-01T07:32:39.837Z,98173.25
2023-04-01T07:35:18.192Z,98177.56
2023-04-01T07:37:56.804Z,98175.00
2023-04-01T07:40:32.472Z,98175.94
2023-04-01T07:43:02.105Z,98181.09
2023-04-01T07:46:14.130Z,98184.47
2023-04-01T07:48:58.644Z,98187.06
2023-04-01T07:52:02.860Z,98181.06
2023-04-01T07:54:41.421Z,98191.34
2023-04-01T07:57:35.654Z,98191.34
2023-04-01T08:00:14.221Z,98199.88
2023-04-01T08:02:50.424Z,98198.19
2023-04-01T08:05:31.584Z,98196.47
2023-04-01T08:08:48.836Z,98200.75
2023-04-01T08:11:59.260Z,98199.88
2023-04-01T08:14:25.926Z,98198.00
2023-04-01T08:17:24.033Z,98193.50
2023-04-01T08:20:04.099Z,98196.81
2023-04-01T08:22:37.880Z,98189.88
2023-04-01T08:25:08.717Z,98196.69
2023-04-01T08:27:40.928Z,98196.78
2023-04-01T08:30:24.148Z,98197.63
2023-04-01T08:33:01.600Z,98194.09
2023-04-01T08:35:36.929Z,98191.47
2023-04-01T08:38:46.412Z,98175.06
2023-04-01T08:41:30.902Z,98181.00
2023-04-01T08:44:24.905Z,98182.53
2023-04-01T08:46:57.297Z,98174.69
2023-04-01T08:49:45.579Z,98171.13
2023-04-01T08:52:29.873Z,98173.66
2023-04-01T08:55:18.218Z,98173.53
2023-04-01T08:58:02.732Z,98171.72
2023-04-01T09:00:33.893Z,98169.97
2023-04-01T09:03:15.932Z,98176.63
2023-04-01T09:06:20.397Z,98179.94
2023-04-01T09:08:53.050Z,98182.41
2023-04-01T09:11:31.995Z,98184.91
2023-04-01T09:14:22.181Z,98182.22
2023-04-01T09:17:17.966Z,98183.47
2023-04-01T09:19:59.536Z,98178.75
2023-04-01T09:22:47.253Z,98181.81
2023-04-01T09:25:34.238Z,98169.69
2023-04-01T09:28:19.380Z,98171.38
2023-04-01T09:30:57.579Z,98168.69
2023-04-01T09:33:44.185Z,98177.91
2023-04-01T09:36:19.462Z,98179.69
2023-04-01T09:39:04.752Z,98179.75
2023-04-01T09:41:33.436Z,98167.28
2023-04-01T09:44:05.511Z,98163.69
2023-04-01T09:47:09.835Z,98173.75
2023-04-01T09:49:36.365Z,98174.06
2023-04-01T09:52:19.101Z,98172.03
2023-04-01T09:55:14.265Z,98166.53
2023-04-01T09:58:18.282Z,98161.97
2023-04-01T10:01:22.584Z,98171.28
2023-04-01T10:04:00.837Z,98168.47
2023-04-01T10:06:36.702Z,98166.41
2023-04-01T10:09:15.242Z,98165.28
2023-04-01T10:12:03.820Z,98161.38
2023-04-01T10:15:06.852Z,98163.78
2023-04-01T10:17:42.834Z,98156.69
2023-04-01T10:20:15.364Z,98150.09
2023-04-01T10:23:20.602Z,98149.66
2023-04-01T10:26:08.545Z,98142.09
2023-04-01T10:28:58.652Z,98141.34
2023-04-01T10:31:28.075Z,98142.22
2023-04-01T10:33:57.367Z,98133.81
2023-04-01T10:36:50.156Z,98129.53
2023-04-01T10:39:47.129Z,98137.38
2023-04-01T10:42:57.174Z,98134.81
2023-04-01T10:45:23.636Z,98133.03
2023-04-01T10:48:06.323Z,98127.59
2023-04-01T10:50:40.604Z,98121.63
2023-04-01T10:53:25.120Z,98116.09
2023-04-01T10:56:33.051Z,98120.38
2023-04-01T10:59:17.332Z,98113.22
2023-04-01T11:02:11.390Z,98126.63
2023-04-01T11:04:44.498Z,98119.69
2023-04-01T11:07:41.462Z,98119.66
2023-04-01T11:10:45.816Z,98111.16
2023-04-01T11:13:24.366Z,98121.91
2023-04-01T11:16:28.114Z,98115.78
2023-04-01T11:18:57.177Z,98113.91
2023-04-01T11:21:51.602Z,98112.38
2023-04-01T11:24:39.547Z,98110.81
2023-04-01T11:27:24.993Z,98107.78
2023-04-01T11:30:08.813Z,98110.38
2023-04-01T11:33:01.954Z,98101.94
2023-04-01T11:35:50.045Z,98094.38
2023-04-01T11:38:41.317Z,98096.88
2023-04-01T11:41:26.750Z,98098.34
2023-04-01T11:44:04.987Z,98083.78
2023-04-01T11:46:42.426Z,98086.59
2023-04-01T11:49:20.346Z,98091.78
2023-04-01T11:52:34.465Z,98080.78
2023-04-01T11:55:20.363Z,98073.88
2023-04-01T11:58:29.620Z,98073.75
2023-04-01T12:01:10.746Z,98077.63
2023-04-01T12:03:52.371Z,98071.88
2023-04-01T12:06:49.820Z,98077.78
2023-04-01T12:09:31.577Z,98070.44
2023-04-01T12:12:16.204Z,98062.59
2023-04-01T12:15:00.348Z,98063.41
2023-04-01T12:17:54.871Z,98064.31
2023-04-01T12:20:46.406Z,98061.50
2023-04-01T12:23:34.970Z,98067.44
2023-04-01T12:26:16.254Z,98065.00
2023-04-01T12:29:04.326Z,98067.72
2023-04-01T12:31:43.013Z,98064.03
2023-04-01T12:34:50.029Z,98061.47
2023-04-01T12:37:48.319Z,98061.25
2023-04-01T12:40:30.016Z,98064.06
2023-04-01T12:43:14.570Z,98067.91
2023-04-01T12:45:50.912Z,98063.69
2023-04-01T12:48:34.767Z,98059.75
2023-04-01T12:51:10.401Z,98058.97
2023-04-01T12:53:52.198Z,98059.59
2023-04-01T12:56:48.818Z,98051.06
2023-04-01T12:59:26.601Z,98051.03
2023-04-01T13:02:07.379Z,98055.56
2023-04-01T13:04:49.108Z,98056.06
2023-04-01T13:07:18.634Z,98048.72
2023-04-01T13:10:02.429Z,98061.75
2023-04-01T13:13:04.098Z,98054.03
2023-04-01T13:16:06.802Z,98058.97
2023-04-01T13:18:40.473Z,98048.78
2023-04-01T13:21:25.490Z,98050.78
2023-04-01T13:24:27.235Z,98068.19
2023-04-01T13:26:59.570Z,98061.56
2023-04-01T13:30:04.511Z,98065.94
2023-04-01T13:35:23.298Z,98056.78
2023-04-01T13:38:22.083Z,98060.19
2023-04-01T13:41:03.628Z,98062.19
2023-04-01T13:43:40.539Z,98053.97
2023-04-01T13:46:28.998Z,98051.69
2023-04-01T13:49:14.164Z,98057.88
2023-04-01T13:52:06.600Z,98060.63
2023-04-01T13:55:07.450Z,98062.41
2023-04-01T13:57:56.020Z,98067.44
2023-04-01T14:00:51.621Z,98061.56
2023-04-01T14:03:29.432Z,98069.19
2023-04-01T14:06:23.968Z,98063.25
2023-04-01T14:09:20.218Z,98068.16
2023-04-01T14:12:07.081Z,98073.91
2023-04-01T14:15:07.327Z,98063.03
2023-04-01T14:17:57.781Z,98063.13
2023-04-01T14:20:38.572Z,98063.31
2023-04-01T14:23:19.989Z,98075.50
2023-04-01T14:26:10.733Z,98071.41
2023-04-01T14:28:58.826Z,98073.50
2023-04-01T14:31:35.629Z,98067.59
2023-04-01T14:34:22.300Z,98068.66
2023-04-01T14:37:16.700Z,98062.00
2023-04-01T14:40:01.404Z,98083.56
2023-04-01T14:42:46.977Z,98075.16
2023-04-01T14:45:46.675Z,98078.75
2023-04-01T14:48:25.431Z,98080.56
2023-04-01T14:50:55.571Z,98076.41
2023-04-01T14:53:25.280Z,98077.34
2023-04-01T14:55:57.432Z,98087.66
2023-04-01T14:58:28.201Z,98076.56
2023-04-01T15:01:08.957Z,98093.81
2023-04-01T15:03:57.430Z,98086.94
2023-04-01T15:06:50.562Z,98087.03
2023-04-01T15:09:34.141Z,98106.78
2023-04-01T15:12:09.501Z,98091.44
2023-04-01T15:14:50.819Z,98096.59
2023-04-01T15:17:26.295Z,98095.00
2023-04-01T15:20:07.684Z,98101.88
2023-04-01T15:23:00.889Z,98101.09
2023-04-01T15:25:52.311Z,98108.84
2023-04-01T15:28:41.834Z,98106.34
2023-04-01T15:31:40.433Z,98111.47
2023-04-01T15:34:10.171Z,98112.41
2023-04-01T15:36:41.423Z,98131.28
2023-04-01T15:39:24.964Z,98117.63
2023-04-01T15:41:54.302Z,98132.13
2023-04-01T15:44:44.098Z,98131.31
2023-04-01T15:48:03.273Z,98132.16
2023-04-01T15:50:32.903Z,98138.19
2023-04-01T15:53:17.344Z,98135.69
2023-04-01T15:55:49.960Z,98136.59
2023-04-01T15:58:23.499Z,98136.66
2023-04-01T16:01:16.592Z,98141.88
2023-04-01T16:04:14.831Z,98135.13
2023-04-01T16:06:55.132Z,98144.63
2023-04-01T16:10:06.316Z,98141.25
2023-04-01T16:12:35.806Z,98142.19
2023-04-01T16:15:15.339Z,98143.94
2023-04-01T16:18:10.509Z,98144.84
2023-04-01T16:20:48.903Z,98147.44
2023-04-01T16:23:36.887Z,98154.31
2023-04-01T16:26:09.123Z,98158.63
2023-04-01T16:28:43.999Z,98162.06
2023-04-01T16:31:16.744Z,98166.34
2023-04-01T16:33:52.487Z,98168.09
2023-04-01T16:36:37.562Z,98165.59
2023-04-01T16:39:12.900Z,98173.25
2023-04-01T16:41:49.686Z,98185.25
2023-04-01T16:44:26.288Z,98193.81
2023-04-01T16:47:14.038Z,98183.59
2023-04-01T16:49:53.260Z,98187.84
2023-04-01T16:53:01.864Z,98198.09
2023-04-01T16:55:54.120Z,98187.06
2023-04-01T16:58:35.698Z,98188.72
2023-04-01T17:01:08.688Z,98187.88
2023-04-01T17:03:43.551Z,98187.88
2023-04-01T17:06:26.388Z,98194.72
2023-04-01T17:09:21.484Z,98185.34
2023-04-01T17:11:56.785Z,98195.63
2023-04-01T17:14:42.073Z,98188.75
2023-04-01T17:17:25.738Z,98185.38
2023-04-01T17:20:01.184Z,98188.75
2023-04-01T17:22:46.318Z,98191.31
2023-04-01T17:25:30.545Z,98200.75
2023-04-01T17:28:05.921Z,98192.19
2023-04-01T17:30:50.838Z,98199.91
2023-04-01T17:33:53.695Z,98197.34
2023-04-01T17:36:26.300Z,98199.06
2023-04-01T17:39:11.347Z,98192.25
2023-04-01T17:42:03.393Z,98197.38
2023-04-01T17:44:29.988Z,98193.97
2023-04-01T17:47:12.519Z,98202.50
2023-04-01T17:50:03.709Z,98209.34
2023-04-01T17:52:45.501Z,98203.38
2023-04-01T17:55:30.775Z,98214.50
2023-04-01T17:58:41.795Z,98201.66
2023-04-01T18:01:24.556Z,98210.22
2023-04-01T18:04:30.065Z,98209.38
2023-04-01T18:07:24.001Z,98211.06
2023-04-01T18:10:24.677Z,98211.06
2023-04-01T18:13:28.236Z,98211.09
2023-04-01T18:16:19.507Z,98211.91
2023-04-01T18:19:10.458Z,98215.34
2023-04-01T18:21:48.374Z,98214.50
2023-04-01T18:24:25.753Z,98209.38
2023-04-01T18:27:04.428Z,98209.38
2023-04-01T18:29:38.620Z,98211.06
2023-04-01T18:32:36.847Z,98216.22
2023-04-01T18:35:39.012Z,98214.50
2023-04-01T18:38:16.079Z,98209.38
2023-04-01T18:41:11.985Z,98217.94
2023-04-01T18:43:57.754Z,98211.13
2023-04-01T18:46:52.683Z,98206.84
2023-04-01T18:49:24.967Z,98209.41
2023-04-01T18:51:58.193Z,98212.84
2023-04-01T18:54:42.925Z,98211.97
2023-04-01T18:57:14.654Z,98213.69
2023-04-01T18:59:56.158Z,98215.41
2023-04-01T19:02:51.766Z,98208.56
2023-04-01T19:05:24.369Z,98212.84
2023-04-01T19:07:53.461Z,98217.13
2023-04-01T19:10:36.556Z,98213.69
2023-04-01T19:13:12.409Z,98211.16
2023-04-01T19:15:47.508Z,98219.66
2023-04-01T19:18:36.147Z,98212.84
2023-04-01T19:21:08.329Z,98212.00
2023-04-01T19:24:00.756Z,98213.72
2023-04-01T19:26:27.469Z,98208.59
2023-04-01T19:29:06.361Z,98212.84
2023-04-01T19:32:13.750Z,98211.16
2023-04-01T19:34:54.114Z,98212.00
2023-04-01T19:37:31.636Z,98220.53
2023-04-01T19:40:46.224Z,98212.88
2023-04-01T19:43:40.130Z,98218.84
2023-04-01T19:46:41.879Z,98220.56
2023-04-01T19:49:51.558Z,98224.00
2023-04-01T19:52:25.014Z,98211.19
2023-04-01T19:55:22.683Z,98221.44
2023-04-01T19:57:55.565Z,98224.81
2023-04-01T20:00:45.434Z,98229.09
2023-04-01T20:03:33.474Z,98233.38
2023-04-01T20:06:05.801Z,98231.66
2023-04-01T20:08:56.126Z,98231.66
2023-04-01T20:11:31.597Z,98227.41
2023-04-01T20:14:03.816Z,98229.09
2023-04-01T20:17:02.216Z,98223.97
2023-04-01T20:19:36.832Z,98225.69
2023-04-01T20:22:10.603Z,98223.97
2023-04-01T20:24:46.949Z,98224.00
2023-04-01T20:27:13.415Z,98226.53
2023-04-01T20:29:52.106Z,98224.84
2023-04-01T20:32:37.533Z,98229.97
2023-04-01T20:35:13.207Z,98226.56
2023-04-01T20:37:51.950Z,98233.34
2023-04-01T20:40:33.435Z,98241.03
2023-04-01T20:43:21.298Z,98231.66
2023-04-01T20:45:53.628Z,98233.41
2023-04-01T20:48:31.577Z,98231.66
2023-04-01T20:51:07.931Z,98235.09
2023-04-01T20:54:12.514Z,98238.50
2023-04-01T20:57:00.939Z,98232.53
2023-04-01T20:59:36.282Z,98237.66
2023-04-01T21:02:50.778Z,98231.69
2023-04-01T21:05:52.927Z,98230.81
2023-04-01T21:08:48.921Z,98229.13
2023-04-01T21:11:27.518Z,98224.84
2023-04-01T21:14:02.047Z,98220.59
2023-04-01T21:16:56.698Z,98214.63
2023-04-01T21:19:52.488Z,98217.19
2023-04-01T21:22:25.254Z,98231.69
2023-04-01T21:25:19.039Z,98227.41
2023-04-01T21:28:06.471Z,98230.81
2023-04-01T21:31:11.349Z,98228.28
2023-04-01T21:34:18.169Z,98229.97
2023-04-01T21:37:22.033Z,98237.69
2023-04-01T21:39:57.225Z,98241.91
2023-04-01T21:42:33.797Z,98243.66
2023-04-01T21:45:15.741Z,98239.38
2023-04-01T21:48:00.350Z,98243.66
2023-04-01T21:50:46.214Z,98235.09
2023-04-01T21:53:12.726Z,98239.38
2023-04-01T21:55:48.078Z,98242.78
2023-04-01T21:58:39.430Z,98242.78
2023-04-01T22:01:30.782Z,98241.91
2023-04-01T22:04:16.102Z,98244.47
2023-04-01T22:06:57.774Z,98249.59
2023-04-01T22:09:35.806Z,98249.59
2023-04-01T22:12:03.826Z,98251.31
2023-04-01T22:14:42.936Z,98252.19
2023-04-01T22:17:36.128Z,98253.88
2023-04-01T22:20:31.476Z,98246.22
2023-04-01T22:23:33.981Z,98243.63
2023-04-01T22:26:10.861Z,98248.75
2023-04-01T22:29:08.138Z,98258.13
2023-04-01T22:31:54.784Z,98248.75
2023-04-01T22:35:12.935Z,98252.19
2023-04-01T22:37:51.679Z,98248.75
2023-04-01T22:40:42.948Z,98242.78
2023-04-01T22:43:13.996Z,98250.47
2023-04-01T22:46:04.874Z,98247.91
2023-04-01T22:48:55.057Z,98249.59
2023-04-01T22:51:45.966Z,98248.78
2023-04-01T22:54:21.746Z,98248.78
2023-04-01T22:56:58.529Z,98242.78
2023-04-01T22:59:36.137Z,98252.19
2023-04-01T23:02:19.504Z,98250.47
2023-04-01T23:04:53.814Z,98256.44
2023-04-01T23:07:57.422Z,98244.50
2023-04-01T23:10:33.812Z,98252.19
2023-04-01T23:13:03.300Z,98251.31
2023-04-01T23:15:31.048Z,98252.19
2023-04-01T23:18:28.481Z,98246.19
2023-04-01T23:21:18.044Z,98246.19
2023-04-01T23:23:52.181Z,98246.19
2023-04-01T23:26:21.979Z,98257.28
2023-04-01T23:28:56.787Z,98259.84
2023-04-01T23:31:42.897Z,98261.56
2023-04-01T23:34:12.414Z,98258.13
2023-04-01T23:36:54.938Z,98258.13
2023-04-01T23:39:33.012Z,98247.03
2023-04-01T23:42:04.550Z,98250.47
2023-04-01T23:44:31.915Z,98247.91
2023-04-01T23:47:01.815Z,98255.59
2023-04-01T23:49:35.342Z,98256.44
2023-04-01T23:52:14.217Z,98251.31
2023-04-01T23:54:54.888Z,98253.88
2023-04-01T23:57:32.346Z,98253.03
